sensor_id;sensor_type;location;lat;lon;timestamp;P1;durP1;ratioP1;P2;durP2;ratioP2
43901;SDS011;29562;40.390;-3.706;2024-03-08T00:00:35;3.47;;;1.88;;
43901;SDS011;29562;40.390;-3.706;2024-03-08T00:01:38;3.30;;;1.67;;
43901;SDS011;29562;40.390;-3.706;2024-03-08T00:02:39;4.25;;;1.75;;
43901;SDS011;29562;40.390;-3.706;2024-03-08T00:03:41;3.72;;;2.00;;
43901;SDS011;29562;40.390;-3.706;2024-03-08T00:04:42;3.05;;;1.90;;
43901;SDS011;29562;40.390;-3.706;2024-03-08T00:05:45;4.47;;;1.83;;
43901;SDS011;29562;40.390;-3.706;2024-03-08T00:06:46;2.13;;;1.35;;
43901;SDS011;29562;40.390;-3.706;2024-03-08T00:07:48;3.45;;;1.70;;
43901;SDS011;29562;40.390;-3.706;2024-03-08T00:08:49;2.95;;;1.40;;
43901;SDS011;29562;40.390;-3.706;2024-03-08T00:09:52;3.42;;;1.52;;
43901;SDS011;29562;40.390;-3.706;2024-03-08T00:10:54;3.03;;;1.70;;
43901;SDS011;29562;40.390;-3.706;2024-03-08T00:11:55;3.90;;;1.25;;
43901;SDS011;29562;40.390;-3.706;2024-03-08T00:12:56;4.00;;;1.67;;
43901;SDS011;29562;40.390;-3.706;2024-03-08T00:13:58;2.13;;;1.30;;
43901;SDS011;29562;40.390;-3.706;2024-03-08T00:14:59;2.38;;;1.25;;
43901;SDS011;29562;40.390;-3.706;2024-03-08T00:16:00;2.92;;;1.17;;
43901;SDS011;29562;40.390;-3.706;2024-03-08T00:17:02;3.72;;;2.17;;
43901;SDS011;29562;40.390;-3.706;2024-03-08T00:18:04;1.77;;;1.15;;
43901;SDS011;29562;40.390;-3.706;2024-03-08T00:19:05;3.22;;;1.40;;
43901;SDS011;29562;40.390;-3.706;2024-03-08T00:20:07;3.20;;;1.52;;
43901;SDS011;29562;40.390;-3.706;2024-03-08T00:21:08;4.30;;;1.48;;
43901;SDS011;29562;40.390;-3.706;2024-03-08T00:22:10;2.22;;;1.45;;
43901;SDS011;29562;40.390;-3.706;2024-03-08T00:23:12;1.80;;;1.02;;
43901;SDS011;29562;40.390;-3.706;2024-03-08T00:24:13;3.00;;;1.23;;
43901;SDS011;29562;40.390;-3.706;2024-03-08T00:25:15;7.20;;;1.38;;
43901;SDS011;29562;40.390;-3.706;2024-03-08T00:26:16;3.50;;;1.60;;
43901;SDS011;29562;40.390;-3.706;2024-03-08T00:27:17;4.15;;;1.50;;
43901;SDS011;29562;40.390;-3.706;2024-03-08T00:28:21;3.38;;;1.70;;
43901;SDS011;29562;40.390;-3.706;2024-03-08T00:29:22;3.53;;;1.40;;
43901;SDS011;29562;40.390;-3.706;2024-03-08T00:30:23;3.85;;;1.60;;
43901;SDS011;29562;40.390;-3.706;2024-03-08T00:31:25;3.22;;;1.80;;
43901;SDS011;29562;40.390;-3.706;2024-03-08T00:32:27;4.65;;;1.77;;
43901;SDS011;29562;40.390;-3.706;2024-03-08T00:33:28;3.10;;;1.42;;
43901;SDS011;29562;40.390;-3.706;2024-03-08T00:34:29;5.03;;;2.05;;
43901;SDS011;29562;40.390;-3.706;2024-03-08T00:35:31;3.90;;;2.20;;
43901;SDS011;29562;40.390;-3.706;2024-03-08T00:36:33;3.33;;;2.05;;
43901;SDS011;29562;40.390;-3.706;2024-03-08T00:37:34;5.03;;;2.10;;
43901;SDS011;29562;40.390;-3.706;2024-03-08T00:38:36;7.10;;;1.98;;
43901;SDS011;29562;40.390;-3.706;2024-03-08T00:39:37;6.68;;;2.45;;
43901;SDS011;29562;40.390;-3.706;2024-03-08T00:40:39;6.10;;;2.65;;
43901;SDS011;29562;40.390;-3.706;2024-03-08T00:41:41;5.47;;;2.50;;
43901;SDS011;29562;40.390;-3.706;2024-03-08T00:42:44;7.28;;;2.75;;
43901;SDS011;29562;40.390;-3.706;2024-03-08T00:43:46;5.05;;;2.55;;
43901;SDS011;29562;40.390;-3.706;2024-03-08T00:44:47;7.00;;;2.88;;
43901;SDS011;29562;40.390;-3.706;2024-03-08T00:45:51;7.28;;;3.13;;
43901;SDS011;29562;40.390;-3.706;2024-03-08T00:46:52;8.52;;;3.17;;
43901;SDS011;29562;40.390;-3.706;2024-03-08T00:47:53;6.53;;;2.58;;
43901;SDS011;29562;40.390;-3.706;2024-03-08T00:48:55;8.98;;;3.35;;
43901;SDS011;29562;40.390;-3.706;2024-03-08T00:49:57;6.05;;;2.78;;
43901;SDS011;29562;40.390;-3.706;2024-03-08T00:50:58;6.47;;;2.42;;
43901;SDS011;29562;40.390;-3.706;2024-03-08T00:51:59;4.38;;;1.90;;
43901;SDS011;29562;40.390;-3.706;2024-03-08T00:53:01;4.13;;;1.73;;
43901;SDS011;29562;40.390;-3.706;2024-03-08T00:54:02;5.32;;;2.08;;
43901;SDS011;29562;40.390;-3.706;2024-03-08T00:55:03;3.92;;;1.70;;
43901;SDS011;29562;40.390;-3.706;2024-03-08T00:56:05;4.10;;;1.70;;
43901;SDS011;29562;40.390;-3.706;2024-03-08T00:57:06;5.32;;;2.08;;
43901;SDS011;29562;40.390;-3.706;2024-03-08T00:58:07;4.53;;;2.15;;
43901;SDS011;29562;40.390;-3.706;2024-03-08T00:59:09;4.07;;;1.40;;
43901;SDS011;29562;40.390;-3.706;2024-03-08T01:00:11;6.15;;;1.90;;
43901;SDS011;29562;40.390;-3.706;2024-03-08T01:01:15;3.40;;;1.90;;
43901;SDS011;29562;40.390;-3.706;2024-03-08T01:02:17;5.60;;;2.10;;
43901;SDS011;29562;40.390;-3.706;2024-03-08T01:03:19;7.00;;;2.45;;
43901;SDS011;29562;40.390;-3.706;2024-03-08T01:04:20;4.53;;;2.33;;
43901;SDS011;29562;40.390;-3.706;2024-03-08T01:05:23;5.10;;;2.35;;
43901;SDS011;29562;40.390;-3.706;2024-03-08T01:06:25;4.82;;;2.88;;
43901;SDS011;29562;40.390;-3.706;2024-03-08T01:07:27;7.47;;;2.97;;
43901;SDS011;29562;40.390;-3.706;2024-03-08T01:08:29;4.75;;;2.83;;
43901;SDS011;29562;40.390;-3.706;2024-03-08T01:09:30;5.35;;;3.22;;
43901;SDS011;29562;40.390;-3.706;2024-03-08T01:10:31;5.32;;;3.00;;
43901;SDS011;29562;40.390;-3.706;2024-03-08T01:11:33;4.38;;;2.33;;
43901;SDS011;29562;40.390;-3.706;2024-03-08T01:12:35;4.15;;;2.60;;
43901;SDS011;29562;40.390;-3.706;2024-03-08T01:13:36;9.52;;;3.10;;
43901;SDS011;29562;40.390;-3.706;2024-03-08T01:14:38;4.57;;;2.50;;
43901;SDS011;29562;40.390;-3.706;2024-03-08T01:15:39;6.20;;;3.17;;
43901;SDS011;29562;40.390;-3.706;2024-03-08T01:16:41;6.43;;;3.00;;
43901;SDS011;29562;40.390;-3.706;2024-03-08T01:17:43;5.43;;;2.45;;
43901;SDS011;29562;40.390;-3.706;2024-03-08T01:18:44;5.70;;;2.80;;
43901;SDS011;29562;40.390;-3.706;2024-03-08T01:19:46;4.93;;;2.95;;
43901;SDS011;29562;40.390;-3.706;2024-03-08T01:20:48;4.07;;;2.63;;
43901;SDS011;29562;40.390;-3.706;2024-03-08T01:21:49;6.28;;;2.42;;
43901;SDS011;29562;40.390;-3.706;2024-03-08T01:22:50;4.45;;;2.70;;
43901;SDS011;29562;40.390;-3.706;2024-03-08T01:23:52;5.93;;;2.78;;
43901;SDS011;29562;40.390;-3.706;2024-03-08T01:24:53;5.68;;;2.95;;
43901;SDS011;29562;40.390;-3.706;2024-03-08T01:25:55;7.70;;;2.90;;
43901;SDS011;29562;40.390;-3.706;2024-03-08T01:26:59;3.85;;;2.10;;
43901;SDS011;29562;40.390;-3.706;2024-03-08T01:28:01;8.35;;;2.78;;
43901;SDS011;29562;40.390;-3.706;2024-03-08T01:29:03;4.78;;;2.05;;
43901;SDS011;29562;40.390;-3.706;2024-03-08T01:30:04;3.30;;;1.77;;
43901;SDS011;29562;40.390;-3.706;2024-03-08T01:31:06;4.32;;;2.65;;
43901;SDS011;29562;40.390;-3.706;2024-03-08T01:32:07;5.57;;;2.30;;
43901;SDS011;29562;40.390;-3.706;2024-03-08T01:33:08;3.65;;;1.90;;
43901;SDS011;29562;40.390;-3.706;2024-03-08T01:34:10;3.40;;;1.52;;
43901;SDS011;29562;40.390;-3.706;2024-03-08T01:35:11;2.63;;;1.40;;
43901;SDS011;29562;40.390;-3.706;2024-03-08T01:36:13;1.75;;;1.02;;
43901;SDS011;29562;40.390;-3.706;2024-03-08T01:37:15;3.63;;;1.58;;
43901;SDS011;29562;40.390;-3.706;2024-03-08T01:38:17;3.95;;;0.90;;
43901;SDS011;29562;40.390;-3.706;2024-03-08T01:39:18;1.52;;;0.90;;
43901;SDS011;29562;40.390;-3.706;2024-03-08T01:40:22;2.58;;;1.20;;
43901;SDS011;29562;40.390;-3.706;2024-03-08T01:41:23;5.13;;;0.82;;
43901;SDS011;29562;40.390;-3.706;2024-03-08T01:42:24;2.55;;;0.90;;
43901;SDS011;29562;40.390;-3.706;2024-03-08T01:43:27;2.08;;;0.93;;
43901;SDS011;29562;40.390;-3.706;2024-03-08T01:44:31;3.42;;;0.80;;
43901;SDS011;29562;40.390;-3.706;2024-03-08T01:45:33;4.43;;;0.90;;
43901;SDS011;29562;40.390;-3.706;2024-03-08T01:46:34;3.05;;;0.80;;
43901;SDS011;29562;40.390;-3.706;2024-03-08T01:47:36;4.70;;;0.95;;
43901;SDS011;29562;40.390;-3.706;2024-03-08T01:48:38;2.47;;;0.90;;
43901;SDS011;29562;40.390;-3.706;2024-03-08T01:49:41;3.55;;;1.20;;
43901;SDS011;29562;40.390;-3.706;2024-03-08T01:50:42;4.05;;;1.23;;
43901;SDS011;29562;40.390;-3.706;2024-03-08T01:51:44;2.15;;;0.95;;
43901;SDS011;29562;40.390;-3.706;2024-03-08T01:52:46;3.45;;;1.00;;
43901;SDS011;29562;40.390;-3.706;2024-03-08T01:53:47;2.88;;;1.05;;
43901;SDS011;29562;40.390;-3.706;2024-03-08T01:54:49;2.45;;;1.00;;
43901;SDS011;29562;40.390;-3.706;2024-03-08T01:55:52;2.30;;;0.90;;
43901;SDS011;29562;40.390;-3.706;2024-03-08T01:56:55;7.28;;;1.65;;
43901;SDS011;29562;40.390;-3.706;2024-03-08T01:57:59;2.55;;;0.90;;
43901;SDS011;29562;40.390;-3.706;2024-03-08T01:59:00;2.47;;;1.00;;
43901;SDS011;29562;40.390;-3.706;2024-03-08T02:00:02;4.28;;;1.00;;
43901;SDS011;29562;40.390;-3.706;2024-03-08T02:01:06;2.17;;;1.00;;
43901;SDS011;29562;40.390;-3.706;2024-03-08T02:02:09;4.20;;;0.90;;
43901;SDS011;29562;40.390;-3.706;2024-03-08T02:03:13;6.45;;;1.15;;
43901;SDS011;29562;40.390;-3.706;2024-03-08T02:04:17;3.60;;;1.20;;
43901;SDS011;29562;40.390;-3.706;2024-03-08T02:05:18;2.47;;;0.60;;
43901;SDS011;29562;40.390;-3.706;2024-03-08T02:06:19;4.30;;;0.98;;
43901;SDS011;29562;40.390;-3.706;2024-03-08T02:07:21;4.85;;;0.70;;
43901;SDS011;29562;40.390;-3.706;2024-03-08T02:08:22;1.25;;;0.50;;
43901;SDS011;29562;40.390;-3.706;2024-03-08T02:09:24;3.72;;;0.55;;
43901;SDS011;29562;40.390;-3.706;2024-03-08T02:10:25;1.63;;;0.30;;
43901;SDS011;29562;40.390;-3.706;2024-03-08T02:11:26;1.20;;;0.40;;
43901;SDS011;29562;40.390;-3.706;2024-03-08T02:12:28;1.88;;;0.40;;
43901;SDS011;29562;40.390;-3.706;2024-03-08T02:13:29;1.15;;;0.40;;
43901;SDS011;29562;40.390;-3.706;2024-03-08T02:14:30;1.63;;;0.47;;
43901;SDS011;29562;40.390;-3.706;2024-03-08T02:16:52;0.85;;;0.30;;
43901;SDS011;29562;40.390;-3.706;2024-03-08T02:17:54;3.05;;;0.60;;
43901;SDS011;29562;40.390;-3.706;2024-03-08T02:18:55;2.50;;;0.35;;
43901;SDS011;29562;40.390;-3.706;2024-03-08T02:19:56;1.90;;;0.20;;
43901;SDS011;29562;40.390;-3.706;2024-03-08T02:20:59;2.03;;;0.45;;
43901;SDS011;29562;40.390;-3.706;2024-03-08T02:22:00;2.60;;;0.75;;
43901;SDS011;29562;40.390;-3.706;2024-03-08T02:23:04;2.40;;;0.50;;
43901;SDS011;29562;40.390;-3.706;2024-03-08T02:24:06;0.30;;;0.10;;
43901;SDS011;29562;40.390;-3.706;2024-03-08T02:25:07;0.70;;;0.28;;
43901;SDS011;29562;40.390;-3.706;2024-03-08T02:26:10;1.77;;;0.47;;
43901;SDS011;29562;40.390;-3.706;2024-03-08T02:27:11;3.20;;;0.40;;
43901;SDS011;29562;40.390;-3.706;2024-03-08T02:28:13;1.23;;;0.50;;
43901;SDS011;29562;40.390;-3.706;2024-03-08T02:29:15;2.85;;;0.77;;
43901;SDS011;29562;40.390;-3.706;2024-03-08T02:30:16;1.48;;;0.47;;
43901;SDS011;29562;40.390;-3.706;2024-03-08T02:31:17;1.35;;;0.40;;
43901;SDS011;29562;40.390;-3.706;2024-03-08T02:32:19;0.88;;;0.40;;
43901;SDS011;29562;40.390;-3.706;2024-03-08T02:33:20;1.58;;;0.32;;
43901;SDS011;29562;40.390;-3.706;2024-03-08T02:34:21;1.15;;;0.40;;
43901;SDS011;29562;40.390;-3.706;2024-03-08T02:35:23;2.90;;;0.60;;
43901;SDS011;29562;40.390;-3.706;2024-03-08T02:36:24;1.15;;;0.70;;
43901;SDS011;29562;40.390;-3.706;2024-03-08T02:37:25;1.50;;;0.50;;
43901;SDS011;29562;40.390;-3.706;2024-03-08T02:38:28;6.78;;;0.70;;
43901;SDS011;29562;40.390;-3.706;2024-03-08T02:39:30;1.42;;;0.38;;
43901;SDS011;29562;40.390;-3.706;2024-03-08T02:40:32;1.08;;;0.55;;
43901;SDS011;29562;40.390;-3.706;2024-03-08T02:41:33;1.02;;;0.45;;
43901;SDS011;29562;40.390;-3.706;2024-03-08T02:42:34;1.77;;;0.57;;
43901;SDS011;29562;40.390;-3.706;2024-03-08T02:43:36;0.77;;;0.40;;
43901;SDS011;29562;40.390;-3.706;2024-03-08T02:44:41;1.13;;;0.40;;
43901;SDS011;29562;40.390;-3.706;2024-03-08T02:45:44;1.00;;;0.50;;
43901;SDS011;29562;40.390;-3.706;2024-03-08T02:46:45;2.60;;;0.40;;
43901;SDS011;29562;40.390;-3.706;2024-03-08T02:47:47;2.15;;;0.40;;
43901;SDS011;29562;40.390;-3.706;2024-03-08T02:48:51;2.53;;;0.30;;
43901;SDS011;29562;40.390;-3.706;2024-03-08T02:49:52;0.68;;;0.28;;
43901;SDS011;29562;40.390;-3.706;2024-03-08T02:50:53;1.38;;;0.50;;
43901;SDS011;29562;40.390;-3.706;2024-03-08T02:51:55;2.38;;;0.38;;
43901;SDS011;29562;40.390;-3.706;2024-03-08T02:52:57;0.73;;;0.22;;
43901;SDS011;29562;40.390;-3.706;2024-03-08T02:53:58;1.52;;;0.50;;
43901;SDS011;29562;40.390;-3.706;2024-03-08T02:55:00;3.15;;;0.60;;
43901;SDS011;29562;40.390;-3.706;2024-03-08T02:56:01;0.75;;;0.28;;
43901;SDS011;29562;40.390;-3.706;2024-03-08T02:57:02;4.28;;;0.45;;
43901;SDS011;29562;40.390;-3.706;2024-03-08T02:58:04;1.85;;;0.40;;
43901;SDS011;29562;40.390;-3.706;2024-03-08T02:59:08;1.52;;;0.32;;
43901;SDS011;29562;40.390;-3.706;2024-03-08T03:00:10;3.53;;;0.32;;
43901;SDS011;29562;40.390;-3.706;2024-03-08T03:01:11;0.50;;;0.20;;
43901;SDS011;29562;40.390;-3.706;2024-03-08T03:02:13;2.83;;;0.60;;
43901;SDS011;29562;40.390;-3.706;2024-03-08T03:03:14;1.20;;;0.38;;
43901;SDS011;29562;40.390;-3.706;2024-03-08T03:04:16;1.27;;;0.25;;
43901;SDS011;29562;40.390;-3.706;2024-03-08T03:05:17;1.42;;;0.40;;
43901;SDS011;29562;40.390;-3.706;2024-03-08T03:06:19;0.98;;;0.20;;
43901;SDS011;29562;40.390;-3.706;2024-03-08T03:07:21;2.40;;;0.40;;
43901;SDS011;29562;40.390;-3.706;2024-03-08T03:08:23;0.40;;;0.28;;
43901;SDS011;29562;40.390;-3.706;2024-03-08T03:09:24;2.83;;;0.52;;
43901;SDS011;29562;40.390;-3.706;2024-03-08T03:10:27;3.83;;;0.47;;
43901;SDS011;29562;40.390;-3.706;2024-03-08T03:11:29;0.90;;;0.20;;
43901;SDS011;29562;40.390;-3.706;2024-03-08T03:12:30;0.45;;;0.10;;
43901;SDS011;29562;40.390;-3.706;2024-03-08T03:13:34;0.55;;;0.10;;
43901;SDS011;29562;40.390;-3.706;2024-03-08T03:14:35;1.63;;;0.38;;
43901;SDS011;29562;40.390;-3.706;2024-03-08T03:15:38;1.40;;;0.32;;
43901;SDS011;29562;40.390;-3.706;2024-03-08T03:16:42;0.85;;;0.38;;
43901;SDS011;29562;40.390;-3.706;2024-03-08T03:17:47;0.90;;;0.32;;
43901;SDS011;29562;40.390;-3.706;2024-03-08T03:18:48;2.20;;;0.50;;
43901;SDS011;29562;40.390;-3.706;2024-03-08T03:19:50;1.42;;;0.43;;
43901;SDS011;29562;40.390;-3.706;2024-03-08T03:20:52;1.65;;;0.30;;
43901;SDS011;29562;40.390;-3.706;2024-03-08T03:21:53;0.60;;;0.30;;
43901;SDS011;29562;40.390;-3.706;2024-03-08T03:22:54;1.85;;;0.28;;
43901;SDS011;29562;40.390;-3.706;2024-03-08T03:23:56;1.42;;;0.30;;
43901;SDS011;29562;40.390;-3.706;2024-03-08T03:24:59;1.45;;;0.57;;
43901;SDS011;29562;40.390;-3.706;2024-03-08T03:26:03;0.93;;;0.40;;
43901;SDS011;29562;40.390;-3.706;2024-03-08T03:27:07;1.10;;;0.22;;
43901;SDS011;29562;40.390;-3.706;2024-03-08T03:28:12;1.60;;;0.47;;
43901;SDS011;29562;40.390;-3.706;2024-03-08T03:29:18;2.20;;;0.60;;
43901;SDS011;29562;40.390;-3.706;2024-03-08T03:30:20;1.38;;;0.40;;
43901;SDS011;29562;40.390;-3.706;2024-03-08T03:31:21;3.00;;;0.40;;
43901;SDS011;29562;40.390;-3.706;2024-03-08T03:32:24;3.42;;;0.65;;
43901;SDS011;29562;40.390;-3.706;2024-03-08T03:33:25;1.95;;;0.55;;
43901;SDS011;29562;40.390;-3.706;2024-03-08T03:34:27;1.25;;;0.40;;
43901;SDS011;29562;40.390;-3.706;2024-03-08T03:35:29;2.08;;;0.68;;
43901;SDS011;29562;40.390;-3.706;2024-03-08T03:36:30;1.08;;;0.30;;
43901;SDS011;29562;40.390;-3.706;2024-03-08T03:37:32;1.70;;;0.50;;
43901;SDS011;29562;40.390;-3.706;2024-03-08T03:38:34;1.08;;;0.38;;
43901;SDS011;29562;40.390;-3.706;2024-03-08T03:39:35;0.85;;;0.30;;
43901;SDS011;29562;40.390;-3.706;2024-03-08T03:40:48;0.85;;;0.30;;
43901;SDS011;29562;40.390;-3.706;2024-03-08T03:41:52;2.10;;;0.28;;
43901;SDS011;29562;40.390;-3.706;2024-03-08T03:42:54;1.40;;;0.28;;
43901;SDS011;29562;40.390;-3.706;2024-03-08T03:43:55;1.65;;;0.30;;
43901;SDS011;29562;40.390;-3.706;2024-03-08T03:44:56;0.90;;;0.40;;
43901;SDS011;29562;40.390;-3.706;2024-03-08T03:45:58;4.40;;;0.90;;
43901;SDS011;29562;40.390;-3.706;2024-03-08T03:46:59;2.75;;;0.70;;
43901;SDS011;29562;40.390;-3.706;2024-03-08T03:48:04;2.90;;;0.68;;
43901;SDS011;29562;40.390;-3.706;2024-03-08T03:49:06;2.67;;;0.80;;
43901;SDS011;29562;40.390;-3.706;2024-03-08T03:50:08;2.10;;;0.98;;
43901;SDS011;29562;40.390;-3.706;2024-03-08T03:51:10;5.53;;;0.88;;
43901;SDS011;29562;40.390;-3.706;2024-03-08T03:52:11;2.42;;;0.80;;
43901;SDS011;29562;40.390;-3.706;2024-03-08T03:53:12;3.38;;;0.85;;
43901;SDS011;29562;40.390;-3.706;2024-03-08T03:54:14;3.05;;;0.50;;
43901;SDS011;29562;40.390;-3.706;2024-03-08T03:55:15;1.10;;;0.38;;
43901;SDS011;29562;40.390;-3.706;2024-03-08T03:56:16;2.97;;;0.60;;
43901;SDS011;29562;40.390;-3.706;2024-03-08T03:57:18;2.50;;;0.57;;
43901;SDS011;29562;40.390;-3.706;2024-03-08T03:58:20;2.97;;;0.28;;
43901;SDS011;29562;40.390;-3.706;2024-03-08T03:59:22;1.70;;;0.32;;
43901;SDS011;29562;40.390;-3.706;2024-03-08T04:00:24;2.17;;;0.50;;
43901;SDS011;29562;40.390;-3.706;2024-03-08T04:01:27;3.05;;;0.63;;
43901;SDS011;29562;40.390;-3.706;2024-03-08T04:02:29;1.65;;;0.65;;
43901;SDS011;29562;40.390;-3.706;2024-03-08T04:03:31;2.00;;;0.60;;
43901;SDS011;29562;40.390;-3.706;2024-03-08T04:04:32;3.20;;;0.50;;
43901;SDS011;29562;40.390;-3.706;2024-03-08T04:05:33;1.73;;;0.60;;
43901;SDS011;29562;40.390;-3.706;2024-03-08T04:06:35;1.73;;;0.47;;
43901;SDS011;29562;40.390;-3.706;2024-03-08T04:07:36;3.67;;;0.60;;
43901;SDS011;29562;40.390;-3.706;2024-03-08T04:08:38;5.03;;;0.50;;
43901;SDS011;29562;40.390;-3.706;2024-03-08T04:09:39;2.13;;;0.47;;
43901;SDS011;29562;40.390;-3.706;2024-03-08T04:10:41;2.75;;;0.65;;
43901;SDS011;29562;40.390;-3.706;2024-03-08T04:11:42;7.05;;;1.25;;
43901;SDS011;29562;40.390;-3.706;2024-03-08T04:12:43;1.92;;;0.50;;
43901;SDS011;29562;40.390;-3.706;2024-03-08T04:13:46;2.90;;;0.47;;
43901;SDS011;29562;40.390;-3.706;2024-03-08T04:14:47;1.02;;;0.22;;
43901;SDS011;29562;40.390;-3.706;2024-03-08T04:15:48;0.82;;;0.50;;
43901;SDS011;29562;40.390;-3.706;2024-03-08T04:16:50;1.27;;;0.20;;
43901;SDS011;29562;40.390;-3.706;2024-03-08T04:17:51;1.70;;;0.32;;
43901;SDS011;29562;40.390;-3.706;2024-03-08T04:18:52;2.20;;;0.52;;
43901;SDS011;29562;40.390;-3.706;2024-03-08T04:19:54;1.77;;;0.40;;
43901;SDS011;29562;40.390;-3.706;2024-03-08T04:20:55;3.10;;;0.63;;
43901;SDS011;29562;40.390;-3.706;2024-03-08T04:21:56;2.47;;;0.50;;
43901;SDS011;29562;40.390;-3.706;2024-03-08T04:22:58;3.05;;;0.45;;
43901;SDS011;29562;40.390;-3.706;2024-03-08T04:23:59;2.58;;;0.60;;
43901;SDS011;29562;40.390;-3.706;2024-03-08T04:25:01;1.05;;;0.25;;
43901;SDS011;29562;40.390;-3.706;2024-03-08T04:26:03;1.23;;;0.50;;
43901;SDS011;29562;40.390;-3.706;2024-03-08T04:27:09;0.60;;;0.20;;
43901;SDS011;29562;40.390;-3.706;2024-03-08T04:28:10;1.17;;;0.32;;
43901;SDS011;29562;40.390;-3.706;2024-03-08T04:29:14;1.20;;;0.35;;
43901;SDS011;29562;40.390;-3.706;2024-03-08T04:30:17;2.88;;;0.50;;
43901;SDS011;29562;40.390;-3.706;2024-03-08T04:31:19;1.63;;;0.30;;
43901;SDS011;29562;40.390;-3.706;2024-03-08T04:32:22;2.90;;;0.30;;
43901;SDS011;29562;40.390;-3.706;2024-03-08T04:33:23;2.92;;;0.85;;
43901;SDS011;29562;40.390;-3.706;2024-03-08T04:34:24;0.22;;;0.20;;
43901;SDS011;29562;40.390;-3.706;2024-03-08T04:35:25;1.75;;;0.30;;
43901;SDS011;29562;40.390;-3.706;2024-03-08T04:36:27;4.30;;;0.45;;
43901;SDS011;29562;40.390;-3.706;2024-03-08T04:37:29;1.98;;;0.30;;
43901;SDS011;29562;40.390;-3.706;2024-03-08T04:38:30;1.30;;;0.30;;
43901;SDS011;29562;40.390;-3.706;2024-03-08T04:39:32;1.52;;;0.60;;
43901;SDS011;29562;40.390;-3.706;2024-03-08T04:40:34;2.72;;;0.45;;
43901;SDS011;29562;40.390;-3.706;2024-03-08T04:41:35;1.15;;;0.52;;
43901;SDS011;29562;40.390;-3.706;2024-03-08T04:42:38;2.53;;;0.40;;
43901;SDS011;29562;40.390;-3.706;2024-03-08T04:43:40;2.03;;;0.35;;
43901;SDS011;29562;40.390;-3.706;2024-03-08T04:44:42;1.63;;;0.40;;
43901;SDS011;29562;40.390;-3.706;2024-03-08T04:45:43;1.50;;;0.40;;
43901;SDS011;29562;40.390;-3.706;2024-03-08T04:46:44;1.75;;;0.50;;
43901;SDS011;29562;40.390;-3.706;2024-03-08T04:47:47;1.98;;;0.70;;
43901;SDS011;29562;40.390;-3.706;2024-03-08T04:48:48;1.63;;;0.50;;
43901;SDS011;29562;40.390;-3.706;2024-03-08T04:49:50;2.28;;;0.45;;
43901;SDS011;29562;40.390;-3.706;2024-03-08T04:50:51;2.15;;;0.63;;
43901;SDS011;29562;40.390;-3.706;2024-03-08T04:51:53;2.53;;;0.88;;
43901;SDS011;29562;40.390;-3.706;2024-03-08T04:52:55;7.30;;;1.17;;
43901;SDS011;29562;40.390;-3.706;2024-03-08T04:53:56;2.10;;;0.50;;
43901;SDS011;29562;40.390;-3.706;2024-03-08T04:54:58;1.23;;;0.60;;
43901;SDS011;29562;40.390;-3.706;2024-03-08T04:56:00;2.53;;;0.85;;
43901;SDS011;29562;40.390;-3.706;2024-03-08T04:57:06;2.47;;;0.88;;
43901;SDS011;29562;40.390;-3.706;2024-03-08T04:58:07;4.78;;;0.73;;
43901;SDS011;29562;40.390;-3.706;2024-03-08T04:59:09;2.47;;;0.73;;
43901;SDS011;29562;40.390;-3.706;2024-03-08T05:00:10;2.60;;;0.88;;
43901;SDS011;29562;40.390;-3.706;2024-03-08T05:01:12;1.17;;;0.63;;
43901;SDS011;29562;40.390;-3.706;2024-03-08T05:02:13;1.80;;;0.50;;
43901;SDS011;29562;40.390;-3.706;2024-03-08T05:03:14;3.33;;;0.70;;
43901;SDS011;29562;40.390;-3.706;2024-03-08T05:04:16;4.05;;;0.65;;
43901;SDS011;29562;40.390;-3.706;2024-03-08T05:05:17;4.00;;;0.65;;
43901;SDS011;29562;40.390;-3.706;2024-03-08T05:06:18;2.72;;;0.60;;
43901;SDS011;29562;40.390;-3.706;2024-03-08T05:07:21;2.47;;;0.50;;
43901;SDS011;29562;40.390;-3.706;2024-03-08T05:08:22;1.80;;;0.30;;
43901;SDS011;29562;40.390;-3.706;2024-03-08T05:09:23;3.60;;;0.70;;
43901;SDS011;29562;40.390;-3.706;2024-03-08T05:10:24;2.25;;;0.30;;
43901;SDS011;29562;40.390;-3.706;2024-03-08T05:11:27;2.70;;;1.05;;
43901;SDS011;29562;40.390;-3.706;2024-03-08T05:12:28;1.48;;;0.40;;
43901;SDS011;29562;40.390;-3.706;2024-03-08T05:13:30;2.35;;;0.35;;
43901;SDS011;29562;40.390;-3.706;2024-03-08T05:14:32;4.82;;;0.30;;
43901;SDS011;29562;40.390;-3.706;2024-03-08T05:15:34;2.70;;;0.50;;
43901;SDS011;29562;40.390;-3.706;2024-03-08T05:16:36;1.73;;;0.32;;
43901;SDS011;29562;40.390;-3.706;2024-03-08T05:17:38;1.52;;;0.35;;
43901;SDS011;29562;40.390;-3.706;2024-03-08T05:18:40;1.77;;;0.50;;
43901;SDS011;29562;40.390;-3.706;2024-03-08T05:19:42;0.93;;;0.30;;
43901;SDS011;29562;40.390;-3.706;2024-03-08T05:20:44;2.55;;;0.50;;
43901;SDS011;29562;40.390;-3.706;2024-03-08T05:21:49;2.95;;;0.40;;
43901;SDS011;29562;40.390;-3.706;2024-03-08T05:22:50;0.73;;;0.30;;
43901;SDS011;29562;40.390;-3.706;2024-03-08T05:23:52;0.95;;;0.30;;
43901;SDS011;29562;40.390;-3.706;2024-03-08T05:24:53;1.58;;;0.50;;
43901;SDS011;29562;40.390;-3.706;2024-03-08T05:25:54;2.10;;;0.45;;
43901;SDS011;29562;40.390;-3.706;2024-03-08T05:26:56;1.88;;;0.40;;
43901;SDS011;29562;40.390;-3.706;2024-03-08T05:27:57;1.50;;;0.30;;
43901;SDS011;29562;40.390;-3.706;2024-03-08T05:28:58;2.45;;;0.40;;
43901;SDS011;29562;40.390;-3.706;2024-03-08T05:30:00;1.48;;;0.30;;
43901;SDS011;29562;40.390;-3.706;2024-03-08T05:31:01;3.42;;;0.45;;
43901;SDS011;29562;40.390;-3.706;2024-03-08T05:32:02;1.17;;;0.45;;
43901;SDS011;29562;40.390;-3.706;2024-03-08T05:33:04;3.10;;;0.30;;
43901;SDS011;29562;40.390;-3.706;2024-03-08T05:34:05;1.27;;;0.28;;
43901;SDS011;29562;40.390;-3.706;2024-03-08T05:35:13;2.10;;;0.32;;
43901;SDS011;29562;40.390;-3.706;2024-03-08T05:36:17;1.00;;;0.38;;
43901;SDS011;29562;40.390;-3.706;2024-03-08T05:37:19;1.00;;;0.38;;
43901;SDS011;29562;40.390;-3.706;2024-03-08T05:38:21;2.03;;;0.38;;
43901;SDS011;29562;40.390;-3.706;2024-03-08T05:39:22;0.98;;;0.32;;
43901;SDS011;29562;40.390;-3.706;2024-03-08T05:40:24;2.60;;;0.50;;
43901;SDS011;29562;40.390;-3.706;2024-03-08T05:41:25;5.80;;;0.50;;
43901;SDS011;29562;40.390;-3.706;2024-03-08T05:42:26;1.45;;;0.30;;
43901;SDS011;29562;40.390;-3.706;2024-03-08T05:43:28;2.42;;;0.40;;
43901;SDS011;29562;40.390;-3.706;2024-03-08T05:44:30;0.80;;;0.35;;
43901;SDS011;29562;40.390;-3.706;2024-03-08T05:45:31;2.33;;;0.40;;
43901;SDS011;29562;40.390;-3.706;2024-03-08T05:46:33;1.30;;;0.30;;
43901;SDS011;29562;40.390;-3.706;2024-03-08T05:47:34;2.85;;;0.40;;
43901;SDS011;29562;40.390;-3.706;2024-03-08T05:48:35;1.65;;;0.40;;
43901;SDS011;29562;40.390;-3.706;2024-03-08T05:49:38;1.60;;;0.40;;
43901;SDS011;29562;40.390;-3.706;2024-03-08T05:50:39;1.95;;;0.40;;
43901;SDS011;29562;40.390;-3.706;2024-03-08T05:51:41;3.40;;;0.45;;
43901;SDS011;29562;40.390;-3.706;2024-03-08T05:52:42;1.75;;;0.50;;
43901;SDS011;29562;40.390;-3.706;2024-03-08T05:53:43;2.05;;;0.55;;
43901;SDS011;29562;40.390;-3.706;2024-03-08T05:54:45;2.72;;;0.40;;
43901;SDS011;29562;40.390;-3.706;2024-03-08T05:55:47;1.30;;;0.22;;
43901;SDS011;29562;40.390;-3.706;2024-03-08T05:56:49;0.90;;;0.35;;
43901;SDS011;29562;40.390;-3.706;2024-03-08T05:57:53;2.50;;;0.40;;
43901;SDS011;29562;40.390;-3.706;2024-03-08T05:58:55;0.77;;;0.40;;
43901;SDS011;29562;40.390;-3.706;2024-03-08T05:59:57;2.75;;;0.50;;
43901;SDS011;29562;40.390;-3.706;2024-03-08T06:00:58;1.25;;;0.50;;
43901;SDS011;29562;40.390;-3.706;2024-03-08T06:01:59;2.17;;;0.50;;
43901;SDS011;29562;40.390;-3.706;2024-03-08T06:03:01;2.47;;;0.43;;
43901;SDS011;29562;40.390;-3.706;2024-03-08T06:04:03;0.50;;;0.25;;
43901;SDS011;29562;40.390;-3.706;2024-03-08T06:05:05;3.20;;;0.60;;
43901;SDS011;29562;40.390;-3.706;2024-03-08T06:06:07;1.50;;;0.40;;
43901;SDS011;29562;40.390;-3.706;2024-03-08T06:07:08;2.05;;;0.40;;
43901;SDS011;29562;40.390;-3.706;2024-03-08T06:08:12;1.38;;;0.38;;